Autopride — CQQE — position and weather

sailwx.info

Track history (hours):
 
Tides and Currents Weather Stations Pressure Air Temp Water Temp Dewpoint Dewpoint Depression Visibility Wind Speed Wind Dir Waves Ship Positions

Autopride

Last reported at 2017-Jun-27 16:59 UTC. Time now 2017-Jun-27 17:09 UTC.
Position N 53°35' E 008°34'.

Length 125 m; draft 4.8 m.

Type: Cargo ship. MMSI: 255801560.

Date/timePositionNaut miles runAvg speedWind from/ knotsBaromVisibWave heightAir tempDewpointWater temp
2017-Jun-27 16:59N 53°35' E 008°34'0 0.0
2017-Jun-27 16:29N 53°35' E 008°34'0 0.0
2017-Jun-27 15:59N 53°35' E 008°34'0 0.0
2017-Jun-27 15:29N 53°35' E 008°34'0 0.6
2017-Jun-27 15:00N 53°34' E 008°33'1 1.0
2017-Jun-27 14:00N 53°33' E 008°34'4 7.7
2017-Jun-27 13:30N 53°36' E 008°30'815.9
2017-Jun-27 13:00N 53°42' E 008°20'816.4
2017-Jun-27 12:30N 53°47' E 008°09'816.0
2017-Jun-27 12:00N 53°51' E 007°58'5414.4
2017-Jun-27 08:15N 54°42' E 007°25'416.6
2017-Jun-27 08:00N 54°46' E 007°25'816.9
2017-Jun-27 07:30N 54°54' E 007°25'817.0
2017-Jun-27 07:00N 55°03' E 007°24'816.8
2017-Jun-27 06:30N 55°11' E 007°23'816.8
2017-Jun-27 06:00N 55°20' E 007°22'817.0
2017-Jun-27 05:30N 55°28' E 007°22'916.8
2017-Jun-27 05:00N 55°37' E 007°22'816.8
2017-Jun-27 04:30N 55°45' E 007°27'816.9
2017-Jun-27 04:00N 55°53' E 007°31'816.5
2017-Jun-27 03:29N 56°01' E 007°35'14017.3
2017-Jun-26 19:25N 58°05' E 009°30'716.8
2017-Jun-26 19:00N 58°11' E 009°38'917.1
2017-Jun-26 18:28N 58°19' E 009°48'817.4
2017-Jun-26 18:00N 58°25' E 009°57'1019.2
2017-Jun-26 17:30N 58°33' E 010°07'1019.8
2017-Jun-26 17:00N 58°41' E 010°17'1020.0
2017-Jun-26 16:30N 58°50' E 010°26'1020.1
2017-Jun-26 16:00N 58°59' E 010°34'1019.6
2017-Jun-26 15:30N 59°09' E 010°38'1019.4
2017-Jun-26 15:00N 59°19' E 010°36'1019.5
2017-Jun-26 14:30N 59°28' E 010°34'1717.1
2017-Jun-26 13:30N 59°45' E 010°33'816.3
2017-Jun-26 13:00N 59°53' E 010°41'2 4.7
2017-Jun-26 12:30N 59°53' E 010°46'0 0.0
2017-Jun-26 08:59N 59°53' E 010°46'0 0.0
2017-Jun-26 08:29N 59°53' E 010°46'0 0.0
2017-Jun-26 07:59N 59°53' E 010°46'0 0.0
2017-Jun-26 07:29N 59°53' E 010°46'0 0.0
2017-Jun-26 06:59N 59°53' E 010°46'0 0.0
2017-Jun-26 06:29N 59°53' E 010°46'0 0.0
2017-Jun-26 05:59N 59°53' E 010°46'0 0.0
2017-Jun-26 05:29N 59°53' E 010°46'0 0.0
2017-Jun-26 04:59N 59°53' E 010°46'0 0.0
2017-Jun-26 04:29N 59°53' E 010°46'0 0.0
2017-Jun-26 03:59N 59°53' E 010°46'0 0.0
2017-Jun-26 03:29N 59°53' E 010°46'0 0.0
2017-Jun-26 02:59N 59°53' E 010°46'0 0.0
2017-Jun-26 02:29N 59°53' E 010°46'0 0.0
2017-Jun-26 01:59N 59°53' E 010°46'0 0.0
2017-Jun-26 01:29N 59°53' E 010°46'0 0.0
2017-Jun-26 00:59N 59°53' E 010°46'0 0.0
2017-Jun-26 00:29N 59°53' E 010°46'0 0.0
2017-Jun-25 23:59N 59°53' E 010°46'0 0.0
2017-Jun-25 23:29N 59°53' E 010°46'0 0.0
2017-Jun-25 22:59N 59°53' E 010°46'0 0.0
2017-Jun-25 22:29N 59°53' E 010°46'0 0.0
2017-Jun-25 21:59N 59°53' E 010°46'0 0.0
2017-Jun-25 21:29N 59°53' E 010°46'0 0.0
2017-Jun-25 20:59N 59°53' E 010°46'0 0.2
2017-Jun-25 20:30N 59°53' E 010°46'611.3
2017-Jun-25 20:00N 59°50' E 010°36'816.9
2017-Jun-25 19:30N 59°42' E 010°36'816.1
2017-Jun-25 19:01N 59°34' E 010°38'1019.5
2017-Jun-25 18:31N 59°24' E 010°35'918.3
2017-Jun-25 18:00N 59°15' E 010°38'917.6
2017-Jun-25 17:31N 59°07' E 010°38'816.4
2017-Jun-25 17:00N 58°59' E 010°31'612.4
2017-Jun-25 16:30N 58°54' E 010°25'612.8
2017-Jun-25 16:00N 58°49' E 010°17'612.6
2017-Jun-25 15:30N 58°43' E 010°11'713.4
2017-Jun-25 15:00N 58°38' E 010°04'19013.1
2017-Jun-25 00:30N 55°48' E 007°28'713.4
2017-Jun-25 00:00N 55°42' E 007°25'713.9
2017-Jun-24 23:30N 55°35' E 007°22'713.6
2017-Jun-24 23:01N 55°28' E 007°23'713.5
2017-Jun-24 22:30N 55°21' E 007°24'713.3
2017-Jun-24 22:00N 55°15' E 007°25'713.1
2017-Jun-24 21:30N 55°08' E 007°26'713.2
2017-Jun-24 21:00N 55°02' E 007°26'713.0
2017-Jun-24 20:30N 54°55' E 007°27'612.9
2017-Jun-24 20:00N 54°49' E 007°28'713.2
2017-Jun-24 19:30N 54°42' E 007°29'612.9
2017-Jun-24 19:00N 54°36' E 007°29'4312.6
2017-Jun-24 15:35N 53°54' E 007°46'212.3
2017-Jun-24 15:27N 53°53' E 007°48'817.6
2017-Jun-24 15:00N 53°51' E 008°01'2019.9
2017-Jun-24 14:00N 53°38' E 008°27'612.6
2017-Jun-24 13:31N 53°33' E 008°33'0 0.6
2017-Jun-24 13:00N 53°33' E 008°34'0 0.9
2017-Jun-24 12:30N 53°34' E 008°34'0 0.1
2017-Jun-24 12:00N 53°34' E 008°34'0 0.0
2017-Jun-24 11:30N 53°34' E 008°34'0 0.0
2017-Jun-24 11:00N 53°34' E 008°34'0 0.0
2017-Jun-24 10:30N 53°34' E 008°34'0 0.0
2017-Jun-24 10:00N 53°34' E 008°34'0 0.0
2017-Jun-24 09:30N 53°34' E 008°34'0 0.0
2017-Jun-24 09:00N 53°34' E 008°34'0 0.0
2017-Jun-24 08:24N 53°34' E 008°34'0 0.0
2017-Jun-24 08:00N 53°34' E 008°34'0 0.0
2017-Jun-24 07:30N 53°34' E 008°34'0 0.0
2017-Jun-24 07:00N 53°34' E 008°34'0 0.0
2017-Jun-24 06:29N 53°34' E 008°34'0 0.0
2017-Jun-24 05:59N 53°34' E 008°34'0 0.0
2017-Jun-24 05:29N 53°34' E 008°34'0 0.0
2017-Jun-24 04:59N 53°34' E 008°34'0 0.0
2017-Jun-24 04:29N 53°34' E 008°34'0 0.0
2017-Jun-24 03:59N 53°34' E 008°34'0 0.0
2017-Jun-24 03:29N 53°34' E 008°34'0 0.0
2017-Jun-24 03:00N 53°34' E 008°34'1 1.1
2017-Jun-24 02:30N 53°33' E 008°34'0 0.5
2017-Jun-24 02:00N 53°33' E 008°34'4 8.0
2017-Jun-24 01:30N 53°36' E 008°30'815.5
2017-Jun-24 01:00N 53°42' E 008°20'815.4
2017-Jun-24 00:30N 53°46' E 008°10'714.7
2017-Jun-24 00:00N 53°51' E 008°00'815.8
2017-Jun-23 23:30N 53°53' E 007°47'612.5
2017-Jun-23 22:59N 53°54' E 007°36'7412.1
2017-Jun-23 16:53N 53°35' E 005°35'512.1
2017-Jun-23 16:29N 53°33' E 005°27'612.1
2017-Jun-23 16:00N 53°32' E 005°18'712.4
2017-Jun-23 15:27N 53°30' E 005°07'612.4
2017-Jun-23 15:00N 53°28' E 004°58'612.4
2017-Jun-23 14:30N 53°26' E 004°49'1910.9
2017-Jun-23 12:44N 53°20' E 004°18'512.2
2017-Jun-23 12:21N 53°20' E 004°10'412.0
2017-Jun-23 12:00N 53°20' E 004°03'611.8
2017-Jun-23 11:30N 53°19' E 003°53'611.8
2017-Jun-23 10:59N 53°19' E 003°43'611.9
2017-Jun-23 10:26N 53°20' E 003°32'611.9
2017-Jun-23 09:54N 53°20' E 003°21'511.9
2017-Jun-23 09:30N 53°20' E 003°13'612.0
2017-Jun-23 08:59N 53°20' E 003°03'711.4
2017-Jun-23 08:22N 53°20' E 002°51'1711.6
2017-Jun-23 06:54N 53°24' E 002°24'8112.1
2017-Jun-23 00:10N 53°33' E 000°08'2 9.9
2017-Jun-22 23:56N 53°34' E 000°04'614.6
2017-Jun-22 23:30N 53°37' W 000°05'4 7.3
2017-Jun-22 23:00N 53°38' W 000°11'0 0.5
2017-Jun-22 22:28N 53°38' W 000°12'0 0.0
2017-Jun-22 21:58N 53°38' W 000°12'0 0.0
2017-Jun-22 21:28N 53°38' W 000°12'0 0.0
2017-Jun-22 20:58N 53°38' W 000°12'0 0.0
2017-Jun-22 20:28N 53°38' W 000°12'0 0.0
2017-Jun-22 19:58N 53°38' W 000°12'0 0.0
2017-Jun-22 19:16N 53°38' W 000°12'0 0.0
2017-Jun-22 18:49N 53°38' W 000°12'0 0.0
2017-Jun-22 18:25N 53°38' W 000°12'0 0.0
2017-Jun-22 17:49N 53°38' W 000°12'0 0.0
2017-Jun-22 17:28N 53°38' W 000°12'0 0.0
2017-Jun-22 16:58N 53°38' W 000°12'0 0.0
2017-Jun-22 16:22N 53°38' W 000°12'0 0.0
2017-Jun-22 15:52N 53°38' W 000°12'0 0.0
2017-Jun-22 15:19N 53°38' W 000°12'0 0.0
2017-Jun-22 14:49N 53°38' W 000°12'0 0.0
2017-Jun-22 13:46N 53°38' W 000°12'0 0.0
2017-Jun-22 13:28N 53°38' W 000°12'0 0.0
2017-Jun-22 12:55N 53°38' W 000°12'0 0.0
2017-Jun-22 12:22N 53°38' W 000°12'0 0.0
2017-Jun-22 11:55N 53°38' W 000°12'0 0.0
2017-Jun-22 11:25N 53°38' W 000°12'0 0.0
2017-Jun-22 10:58N 53°38' W 000°12'0 0.0
2017-Jun-22 10:16N 53°38' W 000°12'0 0.0
2017-Jun-22 09:58N 53°38' W 000°12'0 0.0
2017-Jun-22 09:28N 53°38' W 000°12'0 0.0
2017-Jun-22 08:55N 53°38' W 000°12'0 0.0
2017-Jun-22 08:19N 53°38' W 000°12'0 0.0
2017-Jun-22 07:49N 53°38' W 000°12'0 0.0
2017-Jun-22 07:25N 53°38' W 000°12'0 0.0
2017-Jun-22 06:51N 53°38' W 000°12'0 0.0
2017-Jun-22 06:30N 53°38' W 000°12'0 0.0
2017-Jun-22 05:54N 53°38' W 000°12'0 0.0
2017-Jun-22 05:18N 53°38' W 000°12'0 0.0
2017-Jun-22 04:54N 53°38' W 000°12'0 0.8
2017-Jun-22 04:30N 53°38' W 000°11'1 1.2
2017-Jun-22 04:00N 53°38' W 000°11'2 3.3
2017-Jun-22 03:30N 53°38' W 000°08'4 8.3
2017-Jun-22 03:00N 53°36' W 000°02'1411.4
2017-Jun-22 01:46N 53°33' E 000°21'2512.8
2017-Jun-21 23:47N 53°34' E 001°04'310.5
2017-Jun-21 23:30N 53°33' E 001°09'510.7
2017-Jun-21 23:00N 53°31' E 001°17'510.8
2017-Jun-21 22:30N 53°30' E 001°26'510.7
2017-Jun-21 22:00N 53°28' E 001°34'510.9
2017-Jun-21 21:30N 53°27' E 001°43'510.6
2017-Jun-21 21:00N 53°26' E 001°52'510.7
2017-Jun-21 20:30N 53°25' E 002°01'611.0
2017-Jun-21 19:58N 53°24' E 002°10'611.2
2017-Jun-21 19:26N 53°24' E 002°20'511.2
2017-Jun-21 19:00N 53°24' E 002°28'510.6
2017-Jun-21 18:30N 53°23' E 002°37'610.4
2017-Jun-21 17:56N 53°21' E 002°46'4 9.5
2017-Jun-21 17:30N 53°20' E 002°53'6 9.6
2017-Jun-21 16:52N 53°20' E 003°03'4 9.6
2017-Jun-21 16:30N 53°20' E 003°09'9 9.4
2017-Jun-21 15:31N 53°19' E 003°24'1 9.5
2017-Jun-21 15:25N 53°19' E 003°26'10 9.6
2017-Jun-21 14:24N 53°20' E 003°42'12 9.7
2017-Jun-21 13:13N 53°20' E 004°02'310.0
2017-Jun-21 12:56N 53°20' E 004°06'410.1
2017-Jun-21 12:30N 53°20' E 004°14'5 9.8
2017-Jun-21 11:59N 53°20' E 004°22'4 8.7
2017-Jun-21 11:29N 53°21' E 004°29'4 9.3
2017-Jun-21 11:00N 53°25' E 004°34'5 9.5
2017-Jun-21 10:30N 53°28' E 004°40'510.1
2017-Jun-21 10:00N 53°30' E 004°48'510.5
2017-Jun-21 09:30N 53°32' E 004°56'711.5
2017-Jun-21 08:56N 53°34' E 005°06'510.9
2017-Jun-21 08:26N 53°36' E 005°15'410.1
2017-Jun-21 08:00N 53°38' E 005°22'510.4
2017-Jun-21 07:29N 53°39' E 005°31'5 9.9
2017-Jun-21 07:00N 53°40' E 005°38'5 9.6
2017-Jun-21 06:26N 53°42' E 005°47'5 9.4
2017-Jun-21 05:57N 53°43' E 005°54'4 9.3
2017-Jun-21 05:30N 53°45' E 006°01'4 8.9
2017-Jun-21 05:00N 53°46' E 006°08'4 8.9
2017-Jun-21 04:30N 53°48' E 006°15'4 8.4
2017-Jun-21 03:58N 53°49' E 006°22'4 7.9
2017-Jun-21 03:29N 53°50' E 006°29'25 8.9
2017-Jun-21 00:43N 53°56' E 007°09'5 9.7
2017-Jun-21 00:10N 53°58' E 007°18'5 9.8
2017-Jun-20 23:39N 53°59' E 007°26'1 9.9
2017-Jun-20 23:30N 53°59' E 007°29'14 9.6
2017-Jun-20 22:06N 54°01' E 007°51'4 9.7
2017-Jun-20 21:42N 54°01' E 007°58'210.3
2017-Jun-20 21:30N 54°01' E 008°01'610.5
2017-Jun-20 20:57N 54°00' E 008°11'715.8
2017-Jun-20 20:30N 53°59' E 008°23'917.9
2017-Jun-20 20:00N 53°57' E 008°38'612.7
2017-Jun-20 19:30N 53°52' E 008°44'0 0.1
2017-Jun-20 18:57N 53°52' E 008°43'0 0.0
2017-Jun-20 18:30N 53°52' E 008°43'0 0.0
2017-Jun-20 18:00N 53°52' E 008°43'0 0.0
2017-Jun-20 17:30N 53°52' E 008°43'0 0.0
2017-Jun-20 16:57N 53°52' E 008°43'0 0.0
2017-Jun-20 16:30N 53°52' E 008°43'0 0.0
2017-Jun-20 16:00N 53°52' E 008°43'0 0.0
2017-Jun-20 15:30N 53°52' E 008°43'0 0.0
2017-Jun-20 14:57N 53°52' E 008°43'0 0.0
2017-Jun-20 14:30N 53°52' E 008°43'0 0.0
2017-Jun-20 13:30N 53°52' E 008°43'0 0.0
2017-Jun-20 13:00N 53°52' E 008°43'0 0.0
2017-Jun-20 12:27N 53°52' E 008°43'0 0.0
2017-Jun-20 11:57N 53°52' E 008°43'0 0.9
2017-Jun-20 11:31N 53°52' E 008°43'612.0
2017-Jun-20 11:00N 53°57' E 008°37'917.1
2017-Jun-20 10:30N 53°59' E 008°23'816.2
2017-Jun-20 10:00N 53°60' E 008°10'816.6
2017-Jun-20 09:30N 54°02' E 007°56'2816.5
2017-Jun-20 07:49N 54°24' E 007°26'1917.3
2017-Jun-20 06:43N 54°43' E 007°25'417.2
2017-Jun-20 06:30N 54°46' E 007°25'917.4
2017-Jun-20 06:00N 54°55' E 007°25'917.4
2017-Jun-20 05:30N 55°04' E 007°25'917.3
2017-Jun-20 05:00N 55°12' E 007°24'917.5
2017-Jun-20 04:30N 55°21' E 007°23'917.6
2017-Jun-20 04:00N 55°30' E 007°22'917.7
2017-Jun-20 03:29N 55°39' E 007°24'918.1
2017-Jun-20 03:00N 55°48' E 007°28'917.9
2017-Jun-20 02:28N 55°57' E 007°33'9119.4
2017-Jun-19 21:46N 57°22' E 008°31'619.7
2017-Jun-19 21:29N 57°27' E 008°37'1119.4
2017-Jun-19 20:56N 57°35' E 008°49'819.4
2017-Jun-19 20:30N 57°42' E 008°57'1419.2
2017-Jun-19 19:48N 57°53' E 009°13'619.1
2017-Jun-19 19:28N 57°58' E 009°19'919.2
2017-Jun-19 18:59N 58°06' E 009°30'919.4
2017-Jun-19 18:30N 58°13' E 009°40'1019.7
2017-Jun-19 18:00N 58°21' E 009°51'1019.4
2017-Jun-19 17:31N 58°29' E 010°01'1019.3
2017-Jun-19 17:00N 58°37' E 010°11'919.0
2017-Jun-19 16:30N 58°45' E 010°21'1019.0
2017-Jun-19 16:00N 58°54' E 010°28'1019.7
2017-Jun-19 15:30N 59°03' E 010°35'1019.4
2017-Jun-19 15:00N 59°13' E 010°38'1019.8
2017-Jun-19 14:30N 59°23' E 010°34'1716.8
2017-Jun-19 13:30N 59°39' E 010°37'815.9
2017-Jun-19 13:00N 59°47' E 010°34'714.7
2017-Jun-19 12:30N 59°53' E 010°44'1 1.8
2017-Jun-19 11:58N 59°53' E 010°46'0 0.0
2017-Jun-19 11:28N 59°53' E 010°46'0 0.0
2017-Jun-19 10:58N 59°53' E 010°46'0 0.0
2017-Jun-19 10:28N 59°53' E 010°46'0 0.0
2017-Jun-19 09:58N 59°53' E 010°46'0 0.0
2017-Jun-19 09:28N 59°53' E 010°46'0 0.0
2017-Jun-19 08:58N 59°53' E 010°46'0 0.0
2017-Jun-19 08:28N 59°53' E 010°46'0 0.0
2017-Jun-19 07:58N 59°53' E 010°46'0 0.0
2017-Jun-19 07:28N 59°53' E 010°46'0 0.0
2017-Jun-19 06:58N 59°53' E 010°46'0 0.0
2017-Jun-19 06:28N 59°53' E 010°46'0 0.0
2017-Jun-19 05:58N 59°53' E 010°46'0 0.0
2017-Jun-19 05:28N 59°53' E 010°46'0 0.0
2017-Jun-19 04:58N 59°53' E 010°46'0 0.0
2017-Jun-19 04:28N 59°53' E 010°46'0 0.0
2017-Jun-19 03:58N 59°53' E 010°46'0 0.0
2017-Jun-19 03:28N 59°53' E 010°46'0 0.0
2017-Jun-19 02:58N 59°53' E 010°46'0 0.0
2017-Jun-19 02:28N 59°53' E 010°46'0 0.0
2017-Jun-19 01:58N 59°53' E 010°46'0 0.0
2017-Jun-19 01:28N 59°53' E 010°46'0 0.0
2017-Jun-19 00:58N 59°53' E 010°46'0 0.0
2017-Jun-19 00:31N 59°53' E 010°46'0 0.0
2017-Jun-19 00:01N 59°53' E 010°46'0 0.0
2017-Jun-18 23:31N 59°53' E 010°46'0 0.0
2017-Jun-18 23:00N 59°53' E 010°46'0 0.0
2017-Jun-18 22:30N 59°53' E 010°46'0 0.0
2017-Jun-18 22:00N 59°53' E 010°46'0 0.0
2017-Jun-18 21:30N 59°53' E 010°46'0 0.0
2017-Jun-18 21:00N 59°53' E 010°46'0 0.4
2017-Jun-18 20:30N 59°53' E 010°46'611.9
2017-Jun-18 20:00N 59°50' E 010°36'816.2
2017-Jun-18 19:30N 59°42' E 010°36'815.7
2017-Jun-18 19:00N 59°34' E 010°38'918.8
2017-Jun-18 18:30N 59°25' E 010°34'1019.1
2017-Jun-18 18:00N 59°16' E 010°38'918.9
2017-Jun-18 17:30N 59°06' E 010°37'714.5
2017-Jun-18 17:00N 58°60' E 010°31'714.1
2017-Jun-18 16:30N 58°54' E 010°23'713.5
2017-Jun-18 16:00N 58°48' E 010°17'713.3
2017-Jun-18 15:30N 58°42' E 010°11'713.3
2017-Jun-18 15:00N 58°36' E 010°04'1313.4
2017-Jun-18 14:00N 58°26' E 009°50'1913.4
2017-Jun-18 12:35N 58°09' E 009°30'313.4
2017-Jun-18 12:23N 58°07' E 009°28'513.3
2017-Jun-18 12:00N 58°03' E 009°23'713.3
2017-Jun-18 11:30N 57°57' E 009°16'713.1
2017-Jun-18 11:00N 57°52' E 009°09'12113.2
2017-Jun-18 01:50N 56°02' E 007°36'1213.2
2017-Jun-18 00:54N 55°50' E 007°30'613.3
2017-Jun-18 00:29N 55°45' E 007°27'613.2
2017-Jun-18 00:00N 55°38' E 007°24'612.9
2017-Jun-17 23:30N 55°32' E 007°22'713.1
2017-Jun-17 23:00N 55°26' E 007°23'713.3
2017-Jun-17 22:30N 55°19' E 007°24'713.3
2017-Jun-17 22:00N 55°12' E 007°24'713.3
2017-Jun-17 21:30N 55°06' E 007°25'713.5
2017-Jun-17 20:58N 54°58' E 007°26'613.3
2017-Jun-17 20:30N 54°52' E 007°26'713.5
2017-Jun-17 20:00N 54°45' E 007°27'714.1
2017-Jun-17 19:30N 54°38' E 007°28'1214.8
2017-Jun-17 18:43N 54°27' E 007°30'  
Track history (hours):
 
Tides and Currents Weather Stations Pressure Air Temp Water Temp Dewpoint Dewpoint Depression Visibility Wind Speed Wind Dir Waves Ship Positions

Autopride

Last reported at 2017-Jun-27 16:59 UTC. Time now 2017-Jun-27 17:09 UTC.
Position N 53°35' E 008°34'.

Length 125 m; draft 4.8 m.

Type: Cargo ship. MMSI: 255801560.

Date/timePositionNaut miles runAvg speedWind from/ knotsBaromVisibWave heightAir tempDewpointWater temp
2017-Jun-27 16:59N 53°35' E 008°34'0 0.0
2017-Jun-27 16:29N 53°35' E 008°34'0 0.0
2017-Jun-27 15:59N 53°35' E 008°34'0 0.0
2017-Jun-27 15:29N 53°35' E 008°34'0 0.6
2017-Jun-27 15:00N 53°34' E 008°33'1 1.0
2017-Jun-27 14:00N 53°33' E 008°34'4 7.7
2017-Jun-27 13:30N 53°36' E 008°30'815.9
2017-Jun-27 13:00N 53°42' E 008°20'816.4
2017-Jun-27 12:30N 53°47' E 008°09'816.0
2017-Jun-27 12:00N 53°51' E 007°58'5414.4
2017-Jun-27 08:15N 54°42' E 007°25'416.6
2017-Jun-27 08:00N 54°46' E 007°25'816.9
2017-Jun-27 07:30N 54°54' E 007°25'817.0
2017-Jun-27 07:00N 55°03' E 007°24'816.8
2017-Jun-27 06:30N 55°11' E 007°23'816.8
2017-Jun-27 06:00N 55°20' E 007°22'817.0
2017-Jun-27 05:30N 55°28' E 007°22'916.8
2017-Jun-27 05:00N 55°37' E 007°22'816.8
2017-Jun-27 04:30N 55°45' E 007°27'816.9
2017-Jun-27 04:00N 55°53' E 007°31'816.5
2017-Jun-27 03:29N 56°01' E 007°35'14017.3
2017-Jun-26 19:25N 58°05' E 009°30'716.8
2017-Jun-26 19:00N 58°11' E 009°38'917.1
2017-Jun-26 18:28N 58°19' E 009°48'817.4
2017-Jun-26 18:00N 58°25' E 009°57'1019.2
2017-Jun-26 17:30N 58°33' E 010°07'1019.8
2017-Jun-26 17:00N 58°41' E 010°17'1020.0
2017-Jun-26 16:30N 58°50' E 010°26'1020.1
2017-Jun-26 16:00N 58°59' E 010°34'1019.6
2017-Jun-26 15:30N 59°09' E 010°38'1019.4
2017-Jun-26 15:00N 59°19' E 010°36'1019.5
2017-Jun-26 14:30N 59°28' E 010°34'1717.1
2017-Jun-26 13:30N 59°45' E 010°33'816.3
2017-Jun-26 13:00N 59°53' E 010°41'2 4.7
2017-Jun-26 12:30N 59°53' E 010°46'0 0.0
2017-Jun-26 08:59N 59°53' E 010°46'0 0.0
2017-Jun-26 08:29N 59°53' E 010°46'0 0.0
2017-Jun-26 07:59N 59°53' E 010°46'0 0.0
2017-Jun-26 07:29N 59°53' E 010°46'0 0.0
2017-Jun-26 06:59N 59°53' E 010°46'0 0.0
2017-Jun-26 06:29N 59°53' E 010°46'0 0.0
2017-Jun-26 05:59N 59°53' E 010°46'0 0.0
2017-Jun-26 05:29N 59°53' E 010°46'0 0.0
2017-Jun-26 04:59N 59°53' E 010°46'0 0.0
2017-Jun-26 04:29N 59°53' E 010°46'0 0.0
2017-Jun-26 03:59N 59°53' E 010°46'0 0.0
2017-Jun-26 03:29N 59°53' E 010°46'0 0.0
2017-Jun-26 02:59N 59°53' E 010°46'0 0.0
2017-Jun-26 02:29N 59°53' E 010°46'0 0.0
2017-Jun-26 01:59N 59°53' E 010°46'0 0.0
2017-Jun-26 01:29N 59°53' E 010°46'0 0.0
2017-Jun-26 00:59N 59°53' E 010°46'0 0.0
2017-Jun-26 00:29N 59°53' E 010°46'0 0.0
2017-Jun-25 23:59N 59°53' E 010°46'0 0.0
2017-Jun-25 23:29N 59°53' E 010°46'0 0.0
2017-Jun-25 22:59N 59°53' E 010°46'0 0.0
2017-Jun-25 22:29N 59°53' E 010°46'0 0.0
2017-Jun-25 21:59N 59°53' E 010°46'0 0.0
2017-Jun-25 21:29N 59°53' E 010°46'0 0.0
2017-Jun-25 20:59N 59°53' E 010°46'0 0.2
2017-Jun-25 20:30N 59°53' E 010°46'611.3
2017-Jun-25 20:00N 59°50' E 010°36'816.9
2017-Jun-25 19:30N 59°42' E 010°36'816.1
2017-Jun-25 19:01N 59°34' E 010°38'1019.5
2017-Jun-25 18:31N 59°24' E 010°35'918.3
2017-Jun-25 18:00N 59°15' E 010°38'917.6
2017-Jun-25 17:31N 59°07' E 010°38'816.4
2017-Jun-25 17:00N 58°59' E 010°31'612.4
2017-Jun-25 16:30N 58°54' E 010°25'612.8
2017-Jun-25 16:00N 58°49' E 010°17'612.6
2017-Jun-25 15:30N 58°43' E 010°11'713.4
2017-Jun-25 15:00N 58°38' E 010°04'19013.1
2017-Jun-25 00:30N 55°48' E 007°28'713.4
2017-Jun-25 00:00N 55°42' E 007°25'713.9
2017-Jun-24 23:30N 55°35' E 007°22'713.6
2017-Jun-24 23:01N 55°28' E 007°23'713.5
2017-Jun-24 22:30N 55°21' E 007°24'713.3
2017-Jun-24 22:00N 55°15' E 007°25'713.1
2017-Jun-24 21:30N 55°08' E 007°26'713.2
2017-Jun-24 21:00N 55°02' E 007°26'713.0
2017-Jun-24 20:30N 54°55' E 007°27'612.9
2017-Jun-24 20:00N 54°49' E 007°28'713.2
2017-Jun-24 19:30N 54°42' E 007°29'612.9
2017-Jun-24 19:00N 54°36' E 007°29'4312.6
2017-Jun-24 15:35N 53°54' E 007°46'212.3
2017-Jun-24 15:27N 53°53' E 007°48'817.6
2017-Jun-24 15:00N 53°51' E 008°01'2019.9
2017-Jun-24 14:00N 53°38' E 008°27'612.6
2017-Jun-24 13:31N 53°33' E 008°33'0 0.6
2017-Jun-24 13:00N 53°33' E 008°34'0 0.9
2017-Jun-24 12:30N 53°34' E 008°34'0 0.1
2017-Jun-24 12:00N 53°34' E 008°34'0 0.0
2017-Jun-24 11:30N 53°34' E 008°34'0 0.0
2017-Jun-24 11:00N 53°34' E 008°34'0 0.0
2017-Jun-24 10:30N 53°34' E 008°34'0 0.0
2017-Jun-24 10:00N 53°34' E 008°34'0 0.0
2017-Jun-24 09:30N 53°34' E 008°34'0 0.0
2017-Jun-24 09:00N 53°34' E 008°34'0 0.0
2017-Jun-24 08:24N 53°34' E 008°34'0 0.0
2017-Jun-24 08:00N 53°34' E 008°34'0 0.0
2017-Jun-24 07:30N 53°34' E 008°34'0 0.0
2017-Jun-24 07:00N 53°34' E 008°34'0 0.0
2017-Jun-24 06:29N 53°34' E 008°34'0 0.0
2017-Jun-24 05:59N 53°34' E 008°34'0 0.0
2017-Jun-24 05:29N 53°34' E 008°34'0 0.0
2017-Jun-24 04:59N 53°34' E 008°34'0 0.0
2017-Jun-24 04:29N 53°34' E 008°34'0 0.0
2017-Jun-24 03:59N 53°34' E 008°34'0 0.0
2017-Jun-24 03:29N 53°34' E 008°34'0 0.0
2017-Jun-24 03:00N 53°34' E 008°34'1 1.1
2017-Jun-24 02:30N 53°33' E 008°34'0 0.5
2017-Jun-24 02:00N 53°33' E 008°34'4 8.0
2017-Jun-24 01:30N 53°36' E 008°30'815.5
2017-Jun-24 01:00N 53°42' E 008°20'815.4
2017-Jun-24 00:30N 53°46' E 008°10'714.7
2017-Jun-24 00:00N 53°51' E 008°00'815.8
2017-Jun-23 23:30N 53°53' E 007°47'612.5
2017-Jun-23 22:59N 53°54' E 007°36'7412.1
2017-Jun-23 16:53N 53°35' E 005°35'512.1
2017-Jun-23 16:29N 53°33' E 005°27'612.1
2017-Jun-23 16:00N 53°32' E 005°18'712.4
2017-Jun-23 15:27N 53°30' E 005°07'612.4
2017-Jun-23 15:00N 53°28' E 004°58'612.4
2017-Jun-23 14:30N 53°26' E 004°49'1910.9
2017-Jun-23 12:44N 53°20' E 004°18'512.2
2017-Jun-23 12:21N 53°20' E 004°10'412.0
2017-Jun-23 12:00N 53°20' E 004°03'611.8
2017-Jun-23 11:30N 53°19' E 003°53'611.8
2017-Jun-23 10:59N 53°19' E 003°43'611.9
2017-Jun-23 10:26N 53°20' E 003°32'611.9
2017-Jun-23 09:54N 53°20' E 003°21'511.9
2017-Jun-23 09:30N 53°20' E 003°13'612.0
2017-Jun-23 08:59N 53°20' E 003°03'711.4
2017-Jun-23 08:22N 53°20' E 002°51'1711.6
2017-Jun-23 06:54N 53°24' E 002°24'8112.1
2017-Jun-23 00:10N 53°33' E 000°08'2 9.9
2017-Jun-22 23:56N 53°34' E 000°04'614.6
2017-Jun-22 23:30N 53°37' W 000°05'4 7.3
2017-Jun-22 23:00N 53°38' W 000°11'0 0.5
2017-Jun-22 22:28N 53°38' W 000°12'0 0.0
2017-Jun-22 21:58N 53°38' W 000°12'0 0.0
2017-Jun-22 21:28N 53°38' W 000°12'0 0.0
2017-Jun-22 20:58N 53°38' W 000°12'0 0.0
2017-Jun-22 20:28N 53°38' W 000°12'0 0.0
2017-Jun-22 19:58N 53°38' W 000°12'0 0.0
2017-Jun-22 19:16N 53°38' W 000°12'0 0.0
2017-Jun-22 18:49N 53°38' W 000°12'0 0.0
2017-Jun-22 18:25N 53°38' W 000°12'0 0.0
2017-Jun-22 17:49N 53°38' W 000°12'0 0.0
2017-Jun-22 17:28N 53°38' W 000°12'0 0.0
2017-Jun-22 16:58N 53°38' W 000°12'0 0.0
2017-Jun-22 16:22N 53°38' W 000°12'0 0.0
2017-Jun-22 15:52N 53°38' W 000°12'0 0.0
2017-Jun-22 15:19N 53°38' W 000°12'0 0.0
2017-Jun-22 14:49N 53°38' W 000°12'0 0.0
2017-Jun-22 13:46N 53°38' W 000°12'0 0.0
2017-Jun-22 13:28N 53°38' W 000°12'0 0.0
2017-Jun-22 12:55N 53°38' W 000°12'0 0.0
2017-Jun-22 12:22N 53°38' W 000°12'0 0.0
2017-Jun-22 11:55N 53°38' W 000°12'0 0.0
2017-Jun-22 11:25N 53°38' W 000°12'0 0.0
2017-Jun-22 10:58N 53°38' W 000°12'0 0.0
2017-Jun-22 10:16N 53°38' W 000°12'0 0.0
2017-Jun-22 09:58N 53°38' W 000°12'0 0.0
2017-Jun-22 09:28N 53°38' W 000°12'0 0.0
2017-Jun-22 08:55N 53°38' W 000°12'0 0.0
2017-Jun-22 08:19N 53°38' W 000°12'0 0.0
2017-Jun-22 07:49N 53°38' W 000°12'0 0.0
2017-Jun-22 07:25N 53°38' W 000°12'0 0.0
2017-Jun-22 06:51N 53°38' W 000°12'0 0.0
2017-Jun-22 06:30N 53°38' W 000°12'0 0.0
2017-Jun-22 05:54N 53°38' W 000°12'0 0.0
2017-Jun-22 05:18N 53°38' W 000°12'0 0.0
2017-Jun-22 04:54N 53°38' W 000°12'0 0.8
2017-Jun-22 04:30N 53°38' W 000°11'1 1.2
2017-Jun-22 04:00N 53°38' W 000°11'2 3.3
2017-Jun-22 03:30N 53°38' W 000°08'4 8.3
2017-Jun-22 03:00N 53°36' W 000°02'1411.4
2017-Jun-22 01:46N 53°33' E 000°21'2512.8
2017-Jun-21 23:47N 53°34' E 001°04'310.5
2017-Jun-21 23:30N 53°33' E 001°09'510.7
2017-Jun-21 23:00N 53°31' E 001°17'510.8
2017-Jun-21 22:30N 53°30' E 001°26'510.7
2017-Jun-21 22:00N 53°28' E 001°34'510.9
2017-Jun-21 21:30N 53°27' E 001°43'510.6
2017-Jun-21 21:00N 53°26' E 001°52'510.7
2017-Jun-21 20:30N 53°25' E 002°01'611.0
2017-Jun-21 19:58N 53°24' E 002°10'611.2
2017-Jun-21 19:26N 53°24' E 002°20'511.2
2017-Jun-21 19:00N 53°24' E 002°28'510.6
2017-Jun-21 18:30N 53°23' E 002°37'610.4
2017-Jun-21 17:56N 53°21' E 002°46'4 9.5
2017-Jun-21 17:30N 53°20' E 002°53'6 9.6
2017-Jun-21 16:52N 53°20' E 003°03'4 9.6
2017-Jun-21 16:30N 53°20' E 003°09'9 9.4
2017-Jun-21 15:31N 53°19' E 003°24'1 9.5
2017-Jun-21 15:25N 53°19' E 003°26'10 9.6
2017-Jun-21 14:24N 53°20' E 003°42'12 9.7
2017-Jun-21 13:13N 53°20' E 004°02'310.0
2017-Jun-21 12:56N 53°20' E 004°06'410.1
2017-Jun-21 12:30N 53°20' E 004°14'5 9.8
2017-Jun-21 11:59N 53°20' E 004°22'4 8.7
2017-Jun-21 11:29N 53°21' E 004°29'4 9.3
2017-Jun-21 11:00N 53°25' E 004°34'5 9.5
2017-Jun-21 10:30N 53°28' E 004°40'510.1
2017-Jun-21 10:00N 53°30' E 004°48'510.5
2017-Jun-21 09:30N 53°32' E 004°56'711.5
2017-Jun-21 08:56N 53°34' E 005°06'510.9
2017-Jun-21 08:26N 53°36' E 005°15'410.1
2017-Jun-21 08:00N 53°38' E 005°22'510.4
2017-Jun-21 07:29N 53°39' E 005°31'5 9.9
2017-Jun-21 07:00N 53°40' E 005°38'5 9.6
2017-Jun-21 06:26N 53°42' E 005°47'5 9.4
2017-Jun-21 05:57N 53°43' E 005°54'4 9.3
2017-Jun-21 05:30N 53°45' E 006°01'4 8.9
2017-Jun-21 05:00N 53°46' E 006°08'4 8.9
2017-Jun-21 04:30N 53°48' E 006°15'4 8.4
2017-Jun-21 03:58N 53°49' E 006°22'4 7.9
2017-Jun-21 03:29N 53°50' E 006°29'25 8.9
2017-Jun-21 00:43N 53°56' E 007°09'5 9.7
2017-Jun-21 00:10N 53°58' E 007°18'5 9.8
2017-Jun-20 23:39N 53°59' E 007°26'1 9.9
2017-Jun-20 23:30N 53°59' E 007°29'14 9.6
2017-Jun-20 22:06N 54°01' E 007°51'4 9.7
2017-Jun-20 21:42N 54°01' E 007°58'210.3
2017-Jun-20 21:30N 54°01' E 008°01'610.5
2017-Jun-20 20:57N 54°00' E 008°11'715.8
2017-Jun-20 20:30N 53°59' E 008°23'917.9
2017-Jun-20 20:00N 53°57' E 008°38'612.7
2017-Jun-20 19:30N 53°52' E 008°44'0 0.1
2017-Jun-20 18:57N 53°52' E 008°43'0 0.0
2017-Jun-20 18:30N 53°52' E 008°43'0 0.0
2017-Jun-20 18:00N 53°52' E 008°43'0 0.0
2017-Jun-20 17:30N 53°52' E 008°43'0 0.0
2017-Jun-20 16:57N 53°52' E 008°43'0 0.0
2017-Jun-20 16:30N 53°52' E 008°43'0 0.0
2017-Jun-20 16:00N 53°52' E 008°43'0 0.0
2017-Jun-20 15:30N 53°52' E 008°43'0 0.0
2017-Jun-20 14:57N 53°52' E 008°43'0 0.0
2017-Jun-20 14:30N 53°52' E 008°43'0 0.0
2017-Jun-20 13:30N 53°52' E 008°43'0 0.0
2017-Jun-20 13:00N 53°52' E 008°43'0 0.0
2017-Jun-20 12:27N 53°52' E 008°43'0 0.0
2017-Jun-20 11:57N 53°52' E 008°43'0 0.9
2017-Jun-20 11:31N 53°52' E 008°43'612.0
2017-Jun-20 11:00N 53°57' E 008°37'917.1
2017-Jun-20 10:30N 53°59' E 008°23'816.2
2017-Jun-20 10:00N 53°60' E 008°10'816.6
2017-Jun-20 09:30N 54°02' E 007°56'2816.5
2017-Jun-20 07:49N 54°24' E 007°26'1917.3
2017-Jun-20 06:43N 54°43' E 007°25'417.2
2017-Jun-20 06:30N 54°46' E 007°25'917.4
2017-Jun-20 06:00N 54°55' E 007°25'917.4
2017-Jun-20 05:30N 55°04' E 007°25'917.3
2017-Jun-20 05:00N 55°12' E 007°24'917.5
2017-Jun-20 04:30N 55°21' E 007°23'917.6
2017-Jun-20 04:00N 55°30' E 007°22'917.7
2017-Jun-20 03:29N 55°39' E 007°24'918.1
2017-Jun-20 03:00N 55°48' E 007°28'917.9
2017-Jun-20 02:28N 55°57' E 007°33'9119.4
2017-Jun-19 21:46N 57°22' E 008°31'619.7
2017-Jun-19 21:29N 57°27' E 008°37'1119.4
2017-Jun-19 20:56N 57°35' E 008°49'819.4
2017-Jun-19 20:30N 57°42' E 008°57'1419.2
2017-Jun-19 19:48N 57°53' E 009°13'619.1
2017-Jun-19 19:28N 57°58' E 009°19'919.2
2017-Jun-19 18:59N 58°06' E 009°30'919.4
2017-Jun-19 18:30N 58°13' E 009°40'1019.7
2017-Jun-19 18:00N 58°21' E 009°51'1019.4
2017-Jun-19 17:31N 58°29' E 010°01'1019.3
2017-Jun-19 17:00N 58°37' E 010°11'919.0
2017-Jun-19 16:30N 58°45' E 010°21'1019.0
2017-Jun-19 16:00N 58°54' E 010°28'1019.7
2017-Jun-19 15:30N 59°03' E 010°35'1019.4
2017-Jun-19 15:00N 59°13' E 010°38'1019.8
2017-Jun-19 14:30N 59°23' E 010°34'1716.8
2017-Jun-19 13:30N 59°39' E 010°37'815.9
2017-Jun-19 13:00N 59°47' E 010°34'714.7
2017-Jun-19 12:30N 59°53' E 010°44'1 1.8
2017-Jun-19 11:58N 59°53' E 010°46'0 0.0
2017-Jun-19 11:28N 59°53' E 010°46'0 0.0
2017-Jun-19 10:58N 59°53' E 010°46'0 0.0
2017-Jun-19 10:28N 59°53' E 010°46'0 0.0
2017-Jun-19 09:58N 59°53' E 010°46'0 0.0
2017-Jun-19 09:28N 59°53' E 010°46'0 0.0
2017-Jun-19 08:58N 59°53' E 010°46'0 0.0
2017-Jun-19 08:28N 59°53' E 010°46'0 0.0
2017-Jun-19 07:58N 59°53' E 010°46'0 0.0
2017-Jun-19 07:28N 59°53' E 010°46'0 0.0
2017-Jun-19 06:58N 59°53' E 010°46'0 0.0
2017-Jun-19 06:28N 59°53' E 010°46'0 0.0
2017-Jun-19 05:58N 59°53' E 010°46'0 0.0
2017-Jun-19 05:28N 59°53' E 010°46'0 0.0
2017-Jun-19 04:58N 59°53' E 010°46'0 0.0
2017-Jun-19 04:28N 59°53' E 010°46'0 0.0
2017-Jun-19 03:58N 59°53' E 010°46'0 0.0
2017-Jun-19 03:28N 59°53' E 010°46'0 0.0
2017-Jun-19 02:58N 59°53' E 010°46'0 0.0
2017-Jun-19 02:28N 59°53' E 010°46'0 0.0
2017-Jun-19 01:58N 59°53' E 010°46'0 0.0
2017-Jun-19 01:28N 59°53' E 010°46'0 0.0
2017-Jun-19 00:58N 59°53' E 010°46'0 0.0
2017-Jun-19 00:31N 59°53' E 010°46'0 0.0
2017-Jun-19 00:01N 59°53' E 010°46'0 0.0
2017-Jun-18 23:31N 59°53' E 010°46'0 0.0
2017-Jun-18 23:00N 59°53' E 010°46'0 0.0
2017-Jun-18 22:30N 59°53' E 010°46'0 0.0
2017-Jun-18 22:00N 59°53' E 010°46'0 0.0
2017-Jun-18 21:30N 59°53' E 010°46'0 0.0
2017-Jun-18 21:00N 59°53' E 010°46'0 0.4
2017-Jun-18 20:30N 59°53' E 010°46'611.9
2017-Jun-18 20:00N 59°50' E 010°36'816.2
2017-Jun-18 19:30N 59°42' E 010°36'815.7
2017-Jun-18 19:00N 59°34' E 010°38'918.8
2017-Jun-18 18:30N 59°25' E 010°34'1019.1
2017-Jun-18 18:00N 59°16' E 010°38'918.9
2017-Jun-18 17:30N 59°06' E 010°37'714.5
2017-Jun-18 17:00N 58°60' E 010°31'714.1
2017-Jun-18 16:30N 58°54' E 010°23'713.5
2017-Jun-18 16:00N 58°48' E 010°17'713.3
2017-Jun-18 15:30N 58°42' E 010°11'713.3
2017-Jun-18 15:00N 58°36' E 010°04'1313.4
2017-Jun-18 14:00N 58°26' E 009°50'1913.4
2017-Jun-18 12:35N 58°09' E 009°30'313.4
2017-Jun-18 12:23N 58°07' E 009°28'513.3
2017-Jun-18 12:00N 58°03' E 009°23'713.3
2017-Jun-18 11:30N 57°57' E 009°16'713.1
2017-Jun-18 11:00N 57°52' E 009°09'12113.2
2017-Jun-18 01:50N 56°02' E 007°36'1213.2
2017-Jun-18 00:54N 55°50' E 007°30'613.3
2017-Jun-18 00:29N 55°45' E 007°27'613.2
2017-Jun-18 00:00N 55°38' E 007°24'612.9
2017-Jun-17 23:30N 55°32' E 007°22'713.1
2017-Jun-17 23:00N 55°26' E 007°23'713.3
2017-Jun-17 22:30N 55°19' E 007°24'713.3
2017-Jun-17 22:00N 55°12' E 007°24'713.3
2017-Jun-17 21:30N 55°06' E 007°25'713.5
2017-Jun-17 20:58N 54°58' E 007°26'613.3
2017-Jun-17 20:30N 54°52' E 007°26'713.5
2017-Jun-17 20:00N 54°45' E 007°27'714.1
2017-Jun-17 19:30N 54°38' E 007°28'1214.8
2017-Jun-17 18:43N 54°27' E 007°30'  

Dump ship's entire track history